Time;durP1;ratioP1;P1;durP2;ratioP2;P2;SDS_P1;SDS_P2;PMS_P1;PMS_P2;Temp;Humidity;BMP_temperature;BMP_pressure;BME280_temperature;BME280_humidity;BME280_pressure;Samples;Min_cycle;Max_cycle;Signal;HPM_P1;HPM_P2
2023/06/07 00:00:59;;;;;;;;;;;16.50;84.50;;;;;;5078442;28;19908;-60
2023/06/07 00:03:25;;;;;;;;;;;16.40;86.20;;;;;;5078163;28;19944;-59
2023/06/07 00:05:50;;;;;;;;;;;16.40;90.90;;;;;;5078302;28;19908;-59
2023/06/07 00:08:17;;;;;;;;;;;16.30;91.80;;;;;;5078318;28;19909;-59
2023/06/07 00:10:43;;;;;;;;;;;16.40;92.50;;;;;;5078195;28;20364;-59
2023/06/07 00:13:09;;;;;;;;;;;16.30;91.90;;;;;;5078339;28;19940;-59
2023/06/07 00:15:35;;;;;;;;;;;16.30;90.80;;;;;;5078235;28;19916;-59
2023/06/07 00:18:01;;;;;;;;;;;16.30;86.30;;;;;;5060046;28;20329;-59
2023/06/07 00:20:27;;;;;;;;;;;16.20;92.60;;;;;;5078473;28;19908;-59
2023/06/07 00:22:55;;;;;;;;;;;16.20;90.40;;;;;;5078678;28;19915;-59
2023/06/07 00:25:21;;;;;;;;;;;16.20;91.60;;;;;;5078003;28;19931;-59
2023/06/07 00:27:47;;;;;;;;;;;16.20;93.70;;;;;;5078035;28;19909;-59
2023/06/07 00:30:13;;;;;;;;;;;16.20;93.30;;;;;;5076765;28;19908;-59
2023/06/07 00:32:38;;;;;;;;;;;16.20;94.60;;;;;;5078362;28;19908;-59
2023/06/07 00:35:07;;;;;;;;;;;16.10;95.70;;;;;;5078376;28;19919;-59
2023/06/07 00:37:32;;;;;;;;;;;16.10;92.20;;;;;;5078026;28;19908;-59
2023/06/07 00:39:58;;;;;;;;;;;16.10;91.80;;;;;;5078303;28;20043;-59
2023/06/07 00:42:24;;;;;;;;;;;16.10;91.10;;;;;;5077607;28;19958;-60
2023/06/07 00:44:50;;;;;;;;;;;16.00;92.80;;;;;;5077817;28;19913;-59
2023/06/07 00:47:16;;;;;;;;;;;16.00;94.30;;;;;;5077885;28;19905;-59
2023/06/07 00:49:43;;;;;;;;;;;16.00;95.70;;;;;;5078125;28;19935;-59
2023/06/07 00:52:08;;;;;;;;;;;16.00;96.40;;;;;;5077638;28;20610;-60
2023/06/07 00:54:34;;;;;;;;;;;15.90;91.90;;;;;;5078002;28;20315;-59
2023/06/07 00:56:59;;;;;;;;;;;15.90;92.00;;;;;;5076360;28;19955;-59
2023/06/07 00:59:26;;;;;;;;;;;15.90;90.90;;;;;;5077411;28;19940;-60
2023/06/07 01:01:51;;;;;;;;;;;15.90;93.20;;;;;;5077749;28;19909;-59
2023/06/07 01:04:19;;;;;;;;;;;15.90;95.70;;;;;;5078019;28;20340;-59
2023/06/07 01:06:44;;;;;;;;;;;15.90;93.60;;;;;;5077654;28;19991;-60
2023/06/07 01:09:13;;;;;;;;;;;15.90;96.20;;;;;;5077739;28;19920;-59
2023/06/07 01:11:43;;;;;;;;;;;15.80;93.60;;;;;;5077566;28;19915;-59
2023/06/07 01:14:12;;;;;;;;;;;15.80;94.40;;;;;;5077531;28;19921;-59
2023/06/07 01:16:39;;;;;;;;;;;15.80;96.50;;;;;;5077735;28;20348;-59
2023/06/07 01:19:05;;;;;;;;;;;15.80;95.50;;;;;;5077419;28;20291;-59
2023/06/07 01:21:33;;;;;;;;;;;15.90;99.90;;;;;;5077494;28;19908;-59
2023/06/07 01:23:59;;;;;;;;;;;15.80;97.20;;;;;;5077899;28;20287;-59
2023/06/07 01:26:27;;;;;;;;;;;15.80;99.90;;;;;;5077926;28;19938;-59
2023/06/07 01:28:53;;;;;;;;;;;15.80;98.90;;;;;;5077288;28;19915;-59
2023/06/07 01:31:21;;;;;;;;;;;15.80;95.70;;;;;;5077405;28;20379;-60
2023/06/07 01:33:47;;;;;;;;;;;15.70;97.10;;;;;;5077688;28;19931;-60
2023/06/07 01:36:13;;;;;;;;;;;15.70;95.00;;;;;;5077236;28;20385;-60
2023/06/07 01:38:40;;;;;;;;;;;15.70;96.00;;;;;;5077575;28;20007;-59
2023/06/07 01:41:06;;;;;;;;;;;15.60;99.40;;;;;;5077452;28;20956;-59
2023/06/07 01:43:32;;;;;;;;;;;15.60;99.90;;;;;;5077382;28;20371;-60
2023/06/07 01:45:58;;;;;;;;;;;15.60;99.90;;;;;;5059227;28;19908;-60
2023/06/07 01:48:24;;;;;;;;;;;15.60;95.70;;;;;;5077468;28;19908;-60
2023/06/07 01:50:49;;;;;;;;;;;15.60;99.90;;;;;;5077285;28;19992;-60
2023/06/07 01:53:15;;;;;;;;;;;15.50;99.90;;;;;;5077555;28;20363;-59
2023/06/07 01:55:40;;;;;;;;;;;15.50;98.90;;;;;;5081247;28;19913;-59
2023/06/07 01:58:26;;;;;;;;;;;15.50;98.20;;;;;;5081129;28;19912;-59
2023/06/07 02:01:02;;;;;;;;;;;15.50;99.10;;;;;;5080954;28;19958;-59
2023/06/07 02:03:38;;;;;;;;;;;15.50;97.40;;;;;;5080785;28;20450;-59
2023/06/07 02:06:06;;;;;;;;;;;15.40;95.60;;;;;;5080722;28;20351;-59
2023/06/07 02:08:33;;;;;;;;;;;15.40;99.40;;;;;;5080600;28;20359;-59
2023/06/07 02:11:00;;;;;;;;;;;15.40;99.90;;;;;;5080921;28;19999;-59
2023/06/07 02:13:36;;;;;;;;;;;15.40;99.20;;;;;;5080376;28;19927;-59
2023/06/07 02:16:05;;;;;;;;;;;15.40;99.90;;;;;;5080934;28;19919;-59
2023/06/07 02:18:31;;;;;;;;;;;15.40;99.90;;;;;;5080811;28;20264;-59
2023/06/07 02:20:56;;;;;;;;;;;15.40;98.30;;;;;;5080734;28;20376;-59
2023/06/07 02:23:22;;;;;;;;;;;15.40;99.90;;;;;;5080469;28;20007;-59
2023/06/07 02:25:48;;;;;;;;;;;15.40;99.90;;;;;;5080596;28;19912;-59
2023/06/07 02:28:13;;;;;;;;;;;15.30;99.90;;;;;;5080738;28;19915;-59
2023/06/07 02:30:39;;;;;;;;;;;15.30;99.10;;;;;;5080354;28;19999;-59
2023/06/07 02:33:06;;;;;;;;;;;15.30;98.70;;;;;;5080491;28;19908;-59
2023/06/07 02:35:32;;;;;;;;;;;15.30;99.90;;;;;;5080350;28;20011;-60
2023/06/07 02:37:58;;;;;;;;;;;15.30;99.90;;;;;;5080471;28;19966;-59
2023/06/07 02:40:23;;;;;;;;;;;15.30;99.90;;;;;;5080146;28;20001;-59
2023/06/07 02:42:49;;;;;;;;;;;15.20;99.90;;;;;;5080147;28;20291;-59
2023/06/07 02:45:15;;;;;;;;;;;15.30;99.90;;;;;;5080269;28;19908;-59
2023/06/07 02:47:41;;;;;;;;;;;15.30;99.90;;;;;;5080208;28;19912;-59
2023/06/07 02:50:07;;;;;;;;;;;15.30;99.90;;;;;;5079886;28;19909;-60
2023/06/07 02:52:36;;;;;;;;;;;15.30;99.90;;;;;;5079957;28;19909;-59
2023/06/07 02:55:02;;;;;;;;;;;15.30;99.90;;;;;;5079665;28;20294;-59
2023/06/07 02:57:28;;;;;;;;;;;15.30;99.90;;;;;;5080306;28;19952;-59
2023/06/07 02:59:54;;;;;;;;;;;15.30;99.90;;;;;;5079943;28;19908;-59
2023/06/07 03:02:19;;;;;;;;;;;15.30;99.90;;;;;;5079930;28;19909;-59
2023/06/07 03:04:46;;;;;;;;;;;15.30;99.90;;;;;;5079199;28;19908;-60
2023/06/07 03:07:12;;;;;;;;;;;15.20;99.90;;;;;;5079823;28;19915;-59
2023/06/07 03:09:38;;;;;;;;;;;15.20;99.90;;;;;;5079731;28;19908;-60
2023/06/07 03:12:04;;;;;;;;;;;15.20;99.90;;;;;;5079260;28;20331;-59
2023/06/07 03:14:30;;;;;;;;;;;15.20;99.90;;;;;;5079070;28;19921;-59
2023/06/07 03:16:55;;;;;;;;;;;15.20;99.90;;;;;;5079426;28;19975;-59
2023/06/07 03:19:21;;;;;;;;;;;15.20;99.90;;;;;;5079330;28;19915;-59
2023/06/07 03:21:47;;;;;;;;;;;15.20;99.90;;;;;;5079270;28;19909;-59
2023/06/07 03:24:13;;;;;;;;;;;15.20;99.90;;;;;;5079217;28;20291;-60
2023/06/07 03:26:39;;;;;;;;;;;15.20;99.90;;;;;;5079356;28;20360;-59
2023/06/07 03:29:04;;;;;;;;;;;15.10;99.90;;;;;;5079140;28;19916;-59
2023/06/07 03:31:31;;;;;;;;;;;15.20;99.90;;;;;;5079419;28;19912;-59
2023/06/07 03:33:57;;;;;;;;;;;15.20;99.90;;;;;;5079230;28;19909;-59
2023/06/07 03:36:25;;;;;;;;;;;15.10;99.90;;;;;;5060886;28;19919;-59
2023/06/07 03:38:52;;;;;;;;;;;15.10;99.90;;;;;;5079002;28;19909;-59
2023/06/07 03:41:18;;;;;;;;;;;15.10;99.90;;;;;;5079094;28;19975;-59
2023/06/07 03:43:43;;;;;;;;;;;15.00;99.90;;;;;;5078832;28;19940;-59
2023/06/07 03:46:09;;;;;;;;;;;15.10;99.90;;;;;;5079211;28;19908;-59
2023/06/07 03:48:36;;;;;;;;;;;15.10;99.90;;;;;;5078511;28;19908;-59
2023/06/07 03:51:02;;;;;;;;;;;15.00;99.90;;;;;;5078627;28;19916;-59
2023/06/07 03:53:27;;;;;;;;;;;15.10;99.90;;;;;;5078832;28;19909;-59
2023/06/07 03:55:54;;;;;;;;;;;15.10;99.90;;;;;;5078683;28;19913;-59
2023/06/07 03:58:20;;;;;;;;;;;15.00;99.90;;;;;;5078614;28;19961;-59
2023/06/07 04:00:48;;;;;;;;;;;15.00;99.90;;;;;;5078400;28;19909;-59
2023/06/07 04:03:14;;;;;;;;;;;15.00;99.90;;;;;;5078268;28;19909;-59
2023/06/07 04:05:40;;;;;;;;;;;15.00;99.90;;;;;;5078273;28;19918;-60
2023/06/07 04:08:06;;;;;;;;;;;15.00;99.90;;;;;;5078360;28;19912;-59
2023/06/07 04:10:32;;;;;;;;;;;15.00;99.90;;;;;;5078487;28;19908;-59
2023/06/07 04:12:58;;;;;;;;;;;15.00;99.90;;;;;;5078321;28;19916;-59
2023/06/07 04:15:23;;;;;;;;;;;15.00;99.90;;;;;;5078311;28;20401;-59
2023/06/07 04:17:49;;;;;;;;;;;15.00;99.90;;;;;;5077731;28;19931;-59
2023/06/07 04:20:14;;;;;;;;;;;14.90;99.90;;;;;;5078143;28;19916;-59
2023/06/07 04:22:41;;;;;;;;;;;14.90;99.90;;;;;;5078292;28;19956;-59
2023/06/07 04:25:07;;;;;;;;;;;15.00;99.90;;;;;;5078054;28;19908;-59
2023/06/07 04:27:34;;;;;;;;;;;15.00;99.90;;;;;;5077973;28;20391;-59
2023/06/07 04:30:02;;;;;;;;;;;14.90;99.90;;;;;;5078021;28;20698;-59
2023/06/07 04:32:28;;;;;;;;;;;14.90;99.90;;;;;;5078077;28;19968;-60
2023/06/07 04:34:56;;;;;;;;;;;14.90;99.90;;;;;;5078100;28;20402;-59
2023/06/07 04:37:22;;;;;;;;;;;14.90;99.90;;;;;;5060057;28;20300;-59
2023/06/07 04:39:49;;;;;;;;;;;14.90;99.90;;;;;;5077828;28;20371;-59
2023/06/07 04:42:16;;;;;;;;;;;14.90;99.90;;;;;;5078330;28;19908;-59
2023/06/07 04:44:42;;;;;;;;;;;14.90;99.90;;;;;;5077750;28;19955;-59
2023/06/07 04:47:11;;;;;;;;;;;15.00;99.90;;;;;;5077785;28;19908;-59
2023/06/07 04:49:38;;;;;;;;;;;14.90;99.90;;;;;;5077804;28;19908;-59
2023/06/07 04:52:05;;;;;;;;;;;14.90;99.90;;;;;;5078042;28;19908;-59
2023/06/07 04:54:32;;;;;;;;;;;14.90;99.90;;;;;;5077623;28;20413;-59
2023/06/07 04:56:58;;;;;;;;;;;14.90;99.90;;;;;;5077745;28;20282;-59
2023/06/07 04:59:24;;;;;;;;;;;14.90;99.90;;;;;;5078084;28;19969;-59
2023/06/07 05:01:50;;;;;;;;;;;14.90;99.90;;;;;;5059722;28;19915;-59
2023/06/07 05:04:19;;;;;;;;;;;14.90;99.90;;;;;;5077490;28;19908;-59
2023/06/07 05:06:45;;;;;;;;;;;14.90;99.90;;;;;;5077875;28;19915;-60
2023/06/07 05:09:11;;;;;;;;;;;14.90;99.90;;;;;;5077931;28;20010;-59
2023/06/07 05:11:36;;;;;;;;;;;14.90;99.90;;;;;;5077672;28;19909;-59
2023/06/07 05:14:02;;;;;;;;;;;15.00;99.90;;;;;;5077608;28;19924;-59
2023/06/07 05:16:28;;;;;;;;;;;15.10;99.90;;;;;;5077526;28;20355;-59
2023/06/07 05:18:56;;;;;;;;;;;15.10;99.90;;;;;;5078028;28;19908;-60
2023/06/07 05:21:22;;;;;;;;;;;15.10;99.90;;;;;;5077586;28;20357;-59
2023/06/07 05:23:47;;;;;;;;;;;15.10;99.90;;;;;;5077822;28;19909;-59
2023/06/07 05:26:13;;;;;;;;;;;15.10;99.90;;;;;;5077699;28;20258;-59
2023/06/07 05:28:38;;;;;;;;;;;15.10;99.90;;;;;;5080530;28;19908;-59
2023/06/07 05:31:04;;;;;;;;;;;15.10;99.90;;;;;;5082004;28;19916;-59
2023/06/07 05:33:30;;;;;;;;;;;15.20;99.90;;;;;;5081447;28;20342;-59
2023/06/07 05:35:56;;;;;;;;;;;15.20;99.90;;;;;;5081445;28;19972;-59
2023/06/07 05:38:22;;;;;;;;;;;15.20;99.90;;;;;;5081689;28;20352;-59
2023/06/07 05:40:48;;;;;;;;;;;15.20;99.90;;;;;;5080742;28;19908;-59
2023/06/07 05:43:13;;;;;;;;;;;15.20;99.90;;;;;;5081243;28;19936;-59
2023/06/07 05:45:40;;;;;;;;;;;15.20;99.90;;;;;;5080967;28;19915;-59
2023/06/07 05:48:06;;;;;;;;;;;15.30;99.90;;;;;;5081245;28;20367;-59
2023/06/07 05:50:32;;;;;;;;;;;15.40;99.90;;;;;;5081075;28;19931;-59
2023/06/07 05:52:59;;;;;;;;;;;15.40;99.90;;;;;;5080494;28;20364;-59
2023/06/07 05:55:25;;;;;;;;;;;15.40;99.90;;;;;;5080483;28;19966;-59
2023/06/07 05:57:53;;;;;;;;;;;15.50;99.90;;;;;;5080934;28;19913;-59
2023/06/07 06:00:20;;;;;;;;;;;15.50;99.90;;;;;;5080836;28;19909;-59
2023/06/07 06:02:46;;;;;;;;;;;15.60;99.90;;;;;;5080638;28;19908;-60
2023/06/07 06:05:12;;;;;;;;;;;15.60;99.90;;;;;;5080728;28;19908;-59
2023/06/07 06:07:38;;;;;;;;;;;15.60;99.90;;;;;;5080593;28;19987;-59
2023/06/07 06:10:04;;;;;;;;;;;15.70;99.90;;;;;;5080643;28;20355;-59
2023/06/07 06:12:30;;;;;;;;;;;15.70;99.90;;;;;;5080498;28;20011;-59
2023/06/07 06:14:56;;;;;;;;;;;15.80;99.90;;;;;;5079979;28;19929;-60
2023/06/07 06:17:21;;;;;;;;;;;15.80;99.90;;;;;;5080828;28;19909;-60
2023/06/07 06:19:47;;;;;;;;;;;15.90;99.90;;;;;;5080470;28;20254;-59
2023/06/07 06:22:13;;;;;;;;;;;16.00;99.90;;;;;;5080397;28;19908;-59
2023/06/07 06:24:38;;;;;;;;;;;16.00;99.90;;;;;;5080406;28;19909;-59
2023/06/07 06:27:06;;;;;;;;;;;16.10;99.90;;;;;;5080406;28;19909;-59
2023/06/07 06:29:31;;;;;;;;;;;16.20;99.90;;;;;;5080561;28;19908;-59
2023/06/07 06:31:57;;;;;;;;;;;16.20;99.90;;;;;;5080467;28;19915;-59
2023/06/07 06:34:23;;;;;;;;;;;16.30;99.90;;;;;;5079997;28;19908;-60
2023/06/07 06:36:49;;;;;;;;;;;16.30;99.90;;;;;;5079732;28;19958;-60
2023/06/07 06:39:15;;;;;;;;;;;16.40;99.90;;;;;;5078494;28;19958;-60
2023/06/07 06:41:41;;;;;;;;;;;17.00;99.90;;;;;;5079557;28;19918;-59
2023/06/07 06:44:06;;;;;;;;;;;16.50;99.90;;;;;;5079763;28;20273;-59
2023/06/07 06:46:32;;;;;;;;;;;16.60;99.90;;;;;;5079719;28;19909;-60
2023/06/07 06:48:57;;;;;;;;;;;16.60;99.90;;;;;;5079580;28;20329;-59
2023/06/07 06:51:23;;;;;;;;;;;16.70;99.90;;;;;;5079334;28;20256;-60
2023/06/07 06:53:49;;;;;;;;;;;16.80;99.90;;;;;;5079926;28;19908;-60
2023/06/07 06:56:14;;;;;;;;;;;16.90;99.90;;;;;;5079581;28;19912;-59
2023/06/07 06:58:40;;;;;;;;;;;16.90;99.90;;;;;;5080234;28;19913;-60
2023/06/07 07:01:07;;;;;;;;;;;17.00;99.90;;;;;;5079914;28;19905;-59
2023/06/07 07:03:33;;;;;;;;;;;17.10;99.90;;;;;;5079983;28;19908;-60
2023/06/07 07:05:58;;;;;;;;;;;17.10;99.90;;;;;;5079528;28;20418;-59
2023/06/07 07:08:25;;;;;;;;;;;17.20;99.90;;;;;;5079865;28;20394;-60
2023/06/07 07:10:50;;;;;;;;;;;17.30;99.90;;;;;;5079617;28;20573;-60
2023/06/07 07:13:16;;;;;;;;;;;17.40;99.90;;;;;;5079510;28;19927;-60
2023/06/07 07:15:42;;;;;;;;;;;17.50;99.90;;;;;;5079422;28;19913;-60
2023/06/07 07:18:08;;;;;;;;;;;17.60;99.90;;;;;;5079409;28;19999;-59
2023/06/07 07:20:33;;;;;;;;;;;17.60;99.90;;;;;;5079001;28;19908;-59
2023/06/07 07:23:01;;;;;;;;;;;17.70;99.90;;;;;;5078796;28;19909;-60
2023/06/07 07:25:27;;;;;;;;;;;17.80;99.90;;;;;;5079535;28;19968;-59
2023/06/07 07:27:53;;;;;;;;;;;17.90;99.90;;;;;;5079540;28;20355;-59
2023/06/07 07:30:18;;;;;;;;;;;18.00;99.90;;;;;;5061353;28;19908;-60
2023/06/07 07:32:44;;;;;;;;;;;18.10;99.90;;;;;;5079120;28;19962;-60
2023/06/07 07:35:10;;;;;;;;;;;18.20;99.90;;;;;;5079195;28;20394;-59
2023/06/07 07:37:38;;;;;;;;;;;18.20;99.90;;;;;;5079497;28;19908;-60
2023/06/07 07:40:05;;;;;;;;;;;18.30;99.90;;;;;;5078840;28;19908;-59
2023/06/07 07:42:31;;;;;;;;;;;18.40;99.90;;;;;;5078758;28;20371;-59
2023/06/07 07:44:56;;;;;;;;;;;18.50;99.90;;;;;;5078900;28;19909;-59
2023/06/07 07:47:22;;;;;;;;;;;18.60;99.90;;;;;;5078608;28;19909;-59
2023/06/07 07:49:47;;;;;;;;;;;18.70;99.90;;;;;;5078550;28;19908;-60
2023/06/07 07:52:13;;;;;;;;;;;18.80;99.90;;;;;;5078876;28;19974;-59
2023/06/07 07:54:39;;;;;;;;;;;18.90;99.90;;;;;;5079043;28;19909;-59
2023/06/07 07:57:05;;;;;;;;;;;18.90;99.90;;;;;;5079261;28;19923;-59
2023/06/07 07:59:30;;;;;;;;;;;19.00;99.90;;;;;;5078909;28;19920;-59
2023/06/07 08:01:56;;;;;;;;;;;19.00;99.90;;;;;;5079280;28;19956;-60
2023/06/07 08:04:21;;;;;;;;;;;19.10;99.90;;;;;;5078833;28;19999;-59
2023/06/07 08:06:47;;;;;;;;;;;19.20;99.90;;;;;;5078747;28;19909;-59
2023/06/07 08:09:14;;;;;;;;;;;19.30;99.90;;;;;;5078944;28;19909;-59
2023/06/07 08:11:39;;;;;;;;;;;19.40;99.90;;;;;;5078808;28;19915;-60
2023/06/07 08:14:05;;;;;;;;;;;19.50;99.90;;;;;;5078628;28;19921;-59
2023/06/07 08:16:31;;;;;;;;;;;19.60;99.90;;;;;;5078494;28;20007;-59
2023/06/07 08:18:57;;;;;;;;;;;19.70;99.90;;;;;;5078671;28;19908;-59
2023/06/07 08:21:23;;;;;;;;;;;19.70;99.90;;;;;;5078490;28;19962;-59
2023/06/07 08:23:48;;;;;;;;;;;19.70;99.90;;;;;;5078646;28;19908;-59
2023/06/07 08:26:16;;;;;;;;;;;19.80;99.90;;;;;;5077619;28;20414;-59
2023/06/07 08:28:42;;;;;;;;;;;19.90;99.90;;;;;;5078575;28;19909;-59
2023/06/07 08:31:10;;;;;;;;;;;20.00;99.90;;;;;;5078348;28;19916;-59
2023/06/07 08:33:36;;;;;;;;;;;20.10;99.90;;;;;;5077739;28;19932;-59
2023/06/07 08:36:02;;;;;;;;;;;20.30;99.90;;;;;;5077826;28;19916;-59
2023/06/07 08:38:27;;;;;;;;;;;20.30;99.90;;;;;;5078157;28;19916;-59
2023/06/07 08:40:55;;;;;;;;;;;20.50;99.90;;;;;;5078253;28;20481;-59
2023/06/07 08:43:21;;;;;;;;;;;20.50;99.90;;;;;;5078433;28;19931;-60
2023/06/07 08:45:47;;;;;;;;;;;20.60;99.90;;;;;;5078463;28;19909;-60
2023/06/07 08:48:13;;;;;;;;;;;20.60;99.90;;;;;;5078157;28;19909;-59
2023/06/07 08:50:39;;;;;;;;;;;20.70;99.90;;;;;;5078386;28;19915;-60
2023/06/07 08:53:09;;;;;;;;;;;20.80;99.90;;;;;;5060096;28;19908;-60
2023/06/07 08:55:36;;;;;;;;;;;20.90;99.90;;;;;;5078110;28;19912;-60
2023/06/07 08:58:02;;;;;;;;;;;21.10;99.90;;;;;;5078298;28;19940;-60
2023/06/07 09:00:28;;;;;;;;;;;21.10;99.90;;;;;;5078280;28;19915;-59
2023/06/07 09:02:53;;;;;;;;;;;21.30;99.90;;;;;;5081095;28;19908;-59
2023/06/07 09:05:20;;;;;;;;;;;21.30;99.90;;;;;;5084731;28;19915;-60
2023/06/07 09:07:45;;;;;;;;;;;21.30;99.90;;;;;;5084579;28;19916;-59
2023/06/07 09:10:13;;;;;;;;;;;21.40;99.90;;;;;;5084437;28;19913;-60
2023/06/07 09:12:39;;;;;;;;;;;21.50;97.50;;;;;;5084379;28;19955;-60
2023/06/07 09:15:06;;;;;;;;;;;21.60;97.80;;;;;;5084557;28;19917;-59
2023/06/07 09:17:58;;;;;;;;;;;21.70;99.90;;;;;;5084916;28;19916;-60
2023/06/07 09:20:25;;;;;;;;;;;21.80;97.60;;;;;;5063610;28;20426;-59
2023/06/07 09:23:04;;;;;;;;;;;21.80;96.60;;;;;;5085057;28;20404;-60
2023/06/07 09:25:30;;;;;;;;;;;21.90;98.90;;;;;;5084689;28;19908;-60
2023/06/07 09:27:56;;;;;;;;;;;22.00;98.10;;;;;;5084445;28;20427;-60
2023/06/07 09:30:22;;;;;;;;;;;22.20;99.90;;;;;;5084693;28;19913;-59
2023/06/07 09:32:48;;;;;;;;;;;22.40;99.00;;;;;;5084486;28;19908;-59
2023/06/07 09:35:14;;;;;;;;;;;22.50;96.90;;;;;;5084541;28;19912;-59
2023/06/07 09:37:44;;;;;;;;;;;22.70;97.80;;;;;;5084914;28;19909;-60
2023/06/07 09:40:10;;;;;;;;;;;22.80;99.10;;;;;;5084358;28;19915;-60
2023/06/07 09:42:36;;;;;;;;;;;23.00;97.20;;;;;;5084703;28;19908;-60
2023/06/07 09:45:15;;;;;;;;;;;23.20;96.40;;;;;;5084341;28;19912;-60
2023/06/07 09:47:45;;;;;;;;;;;23.40;95.10;;;;;;5084319;28;20287;-59
2023/06/07 09:50:11;;;;;;;;;;;23.60;93.20;;;;;;5084118;28;19916;-60
2023/06/07 09:52:37;;;;;;;;;;;23.70;96.80;;;;;;5084201;28;19969;-60
2023/06/07 09:55:06;;;;;;;;;;;23.80;96.10;;;;;;5084496;28;19908;-60
2023/06/07 09:57:32;;;;;;;;;;;23.90;92.40;;;;;;5084143;28;20256;-60
2023/06/07 09:59:59;;;;;;;;;;;24.20;93.60;;;;;;5084380;28;19908;-60
2023/06/07 10:02:25;;;;;;;;;;;24.30;88.60;;;;;;5083978;28;19908;-60
2023/06/07 10:04:52;;;;;;;;;;;24.50;91.60;;;;;;5084159;28;20394;-59
2023/06/07 10:07:19;;;;;;;;;;;24.70;90.90;;;;;;5084142;28;19991;-60
2023/06/07 10:09:47;;;;;;;;;;;25.00;91.00;;;;;;5084064;28;20374;-60
2023/06/07 10:12:13;;;;;;;;;;;25.40;84.40;;;;;;5084112;28;19908;-60
2023/06/07 10:14:40;;;;;;;;;;;26.10;93.50;;;;;;5080636;28;19963;-60
2023/06/07 10:17:10;;;;;;;;;;;27.00;95.10;;;;;;5081156;28;19920;-60
2023/06/07 10:19:36;;;;;;;;;;;27.70;86.40;;;;;;5081120;28;19915;-59
2023/06/07 10:22:02;;;;;;;;;;;28.30;83.20;;;;;;5080599;28;19912;-60
2023/06/07 10:24:35;;;;;;;;;;;29.30;89.00;;;;;;5080964;28;20368;-60
2023/06/07 10:27:09;;;;;;;;;;;29.50;66.70;;;;;;5080742;28;19916;-60
2023/06/07 10:29:37;;;;;;;;;;;29.90;70.60;;;;;;5080864;28;19934;-60
2023/06/07 10:32:26;;;;;;;;;;;30.40;65.10;;;;;;5080833;28;19908;-60
2023/06/07 10:34:54;;;;;;;;;;;31.10;67.60;;;;;;5072218;28;19916;-60
2023/06/07 10:37:20;;;;;;;;;;;31.00;60.50;;;;;;5080985;28;19955;-60
2023/06/07 10:39:46;;;;;;;;;;;31.90;65.00;;;;;;5080456;28;19915;-60
2023/06/07 10:42:12;;;;;;;;;;;33.10;65.10;;;;;;5080465;28;19919;-60
2023/06/07 10:44:38;;;;;;;;;;;32.80;55.20;;;;;;5080605;28;19908;-60
2023/06/07 10:47:22;;;;;;;;;;;32.90;52.40;;;;;;5080338;28;19916;-60
2023/06/07 10:49:48;;;;;;;;;;;33.50;48.60;;;;;;5080275;28;19908;-60
2023/06/07 10:52:15;;;;;;;;;;;33.70;51.20;;;;;;5080230;28;19909;-60
2023/06/07 10:54:44;;;;;;;;;;;34.50;46.10;;;;;;5080545;28;19908;-60
2023/06/07 10:57:10;;;;;;;;;;;34.20;47.50;;;;;;5080141;28;19916;-60
2023/06/07 10:59:36;;;;;;;;;;;34.90;48.40;;;;;;5080322;28;19913;-60
2023/06/07 11:02:22;;;;;;;;;;;35.60;47.50;;;;;;5080055;28;19916;-60
2023/06/07 11:04:48;;;;;;;;;;;36.40;46.70;;;;;;5080580;28;19908;-60
2023/06/07 11:07:32;;;;;;;;;;;36.80;45.30;;;;;;5079969;28;20287;-60
2023/06/07 11:10:00;;;;;;;;;;;36.90;41.10;;;;;;5080058;28;20017;-60
2023/06/07 11:12:35;;;;;;;;;;;37.30;42.20;;;;;;5080025;28;19947;-61
2023/06/07 11:15:20;;;;;;;;;;;37.30;39.40;;;;;;5079514;28;19928;-60
2023/06/07 11:17:56;;;;;;;;;;;37.40;39.60;;;;;;5080186;28;19908;-61
2023/06/07 11:20:37;;;;;;;;;;;37.60;39.10;;;;;;5079603;28;19908;-60
2023/06/07 11:23:21;;;;;;;;;;;38.40;37.60;;;;;;5079553;28;19908;-61
2023/06/07 11:25:47;;;;;;;;;;;37.80;39.80;;;;;;5079155;28;20371;-61
2023/06/07 11:28:13;;;;;;;;;;;37.90;39.50;;;;;;5079271;28;20284;-61
2023/06/07 11:30:43;;;;;;;;;;;38.50;35.50;;;;;;5079692;28;19908;-61
2023/06/07 11:33:20;;;;;;;;;;;38.30;35.50;;;;;;5079257;28;19915;-60
2023/06/07 11:35:45;;;;;;;;;;;38.50;34.70;;;;;;5079779;28;19912;-61
2023/06/07 11:38:11;;;;;;;;;;;39.20;36.40;;;;;;5079104;28;20286;-61
2023/06/07 11:40:37;;;;;;;;;;;38.90;33.30;;;;;;5079498;28;19915;-61
2023/06/07 11:43:02;;;;;;;;;;;38.50;35.60;;;;;;5079699;28;20351;-61
2023/06/07 11:45:28;;;;;;;;;;;38.00;34.20;;;;;;5079175;28;19958;-61
2023/06/07 11:48:00;;;;;;;;;;;38.20;35.20;;;;;;5061044;28;19987;-61
2023/06/07 11:50:25;;;;;;;;;;;38.30;34.00;;;;;;5079541;28;19913;-61
2023/06/07 11:52:55;;;;;;;;;;;38.80;35.60;;;;;;5079093;28;19961;-61
2023/06/07 11:55:20;;;;;;;;;;;39.00;33.90;;;;;;5078903;28;19919;-61
2023/06/07 11:57:48;;;;;;;;;;;38.80;33.10;;;;;;5078176;28;20267;-61
2023/06/07 12:00:18;;;;;;;;;;;38.90;33.80;;;;;;5060382;28;19908;-61
2023/06/07 12:02:44;;;;;;;;;;;39.20;33.80;;;;;;5078521;28;19909;-61
2023/06/07 12:05:10;;;;;;;;;;;39.10;33.70;;;;;;5078886;28;19909;-61
2023/06/07 12:07:36;;;;;;;;;;;39.00;33.50;;;;;;5078911;28;20325;-61
2023/06/07 12:10:05;;;;;;;;;;;39.10;33.10;;;;;;5078765;28;19948;-61
2023/06/07 12:12:31;;;;;;;;;;;39.40;31.10;;;;;;5078512;28;19954;-61
2023/06/07 12:15:03;;;;;;;;;;;39.10;31.90;;;;;;5077786;28;19924;-61
2023/06/07 12:17:35;;;;;;;;;;;38.70;32.00;;;;;;5078443;28;19962;-61
2023/06/07 12:20:15;;;;;;;;;;;38.80;33.00;;;;;;5078205;28;19932;-61
2023/06/07 12:22:40;;;;;;;;;;;38.40;31.50;;;;;;5060121;28;19915;-61
2023/06/07 12:25:16;;;;;;;;;;;38.40;31.60;;;;;;5078067;28;19908;-61
2023/06/07 12:27:46;;;;;;;;;;;38.90;31.00;;;;;;5077927;28;19958;-61
2023/06/07 12:30:11;;;;;;;;;;;39.10;32.20;;;;;;5078020;28;19912;-60
2023/06/07 12:32:37;;;;;;;;;;;38.80;31.50;;;;;;5077761;28;19966;-61
2023/06/07 12:35:05;;;;;;;;;;;39.00;31.90;;;;;;5077964;28;19999;-61
2023/06/07 12:37:37;;;;;;;;;;;39.20;31.50;;;;;;5077104;28;20295;-61
2023/06/07 12:40:05;;;;;;;;;;;39.30;31.80;;;;;;5077860;28;19908;-61
2023/06/07 12:42:31;;;;;;;;;;;39.40;31.90;;;;;;5077633;28;19908;-61
2023/06/07 12:44:56;;;;;;;;;;;39.00;30.90;;;;;;5077874;28;20256;-61
2023/06/07 12:47:22;;;;;;;;;;;38.80;31.80;;;;;;5077940;28;19939;-61
2023/06/07 12:49:48;;;;;;;;;;;39.10;31.10;;;;;;5059567;28;19916;-61
2023/06/07 12:52:13;;;;;;;;;;;38.30;31.20;;;;;;5077806;28;19928;-61
2023/06/07 12:54:39;;;;;;;;;;;38.30;32.00;;;;;;5077882;28;19916;-61
2023/06/07 12:57:05;;;;;;;;;;;37.60;31.50;;;;;;5077527;28;19912;-60
2023/06/07 12:59:31;;;;;;;;;;;37.50;31.60;;;;;;5077787;28;20394;-61
2023/06/07 13:01:56;;;;;;;;;;;36.40;30.80;;;;;;5077421;28;20413;-61
2023/06/07 13:04:23;;;;;;;;;;;36.30;32.70;;;;;;5077834;28;19913;-60
2023/06/07 13:06:49;;;;;;;;;;;36.20;33.40;;;;;;5077473;28;19908;-60
2023/06/07 13:09:14;;;;;;;;;;;35.70;33.00;;;;;;5077241;28;20276;-60
2023/06/07 13:11:41;;;;;;;;;;;34.90;34.20;;;;;;5059423;28;19909;-60
2023/06/07 13:14:07;;;;;;;;;;;34.30;34.90;;;;;;5077199;28;19944;-60
2023/06/07 13:16:33;;;;;;;;;;;33.80;35.50;;;;;;5077345;28;20362;-60
2023/06/07 13:18:59;;;;;;;;;;;33.90;36.30;;;;;;5077582;28;19909;-60
2023/06/07 13:21:25;;;;;;;;;;;34.00;36.60;;;;;;5077273;28;19912;-60
2023/06/07 13:23:51;;;;;;;;;;;34.00;35.40;;;;;;5077375;28;19948;-60
2023/06/07 13:26:17;;;;;;;;;;;34.00;36.10;;;;;;5077578;28;20339;-60
2023/06/07 13:28:44;;;;;;;;;;;34.50;35.50;;;;;;5076992;28;19915;-60
2023/06/07 13:31:11;;;;;;;;;;;34.70;34.60;;;;;;5077450;28;19908;-60
2023/06/07 13:33:37;;;;;;;;;;;35.10;34.10;;;;;;5077351;28;19915;-60
2023/06/07 13:36:02;;;;;;;;;;;34.20;34.30;;;;;;5077085;28;19947;-60
2023/06/07 13:38:28;;;;;;;;;;;34.20;34.20;;;;;;5077227;28;20283;-60
2023/06/07 13:40:54;;;;;;;;;;;34.10;34.00;;;;;;5077302;28;19909;-60
2023/06/07 13:43:19;;;;;;;;;;;33.40;34.30;;;;;;5077200;28;19924;-60
2023/06/07 13:45:45;;;;;;;;;;;33.00;34.90;;;;;;5077123;28;19908;-60
2023/06/07 13:48:11;;;;;;;;;;;32.60;35.30;;;;;;5077175;28;19919;-60
2023/06/07 13:50:42;;;;;;;;;;;33.10;35.60;;;;;;5081015;28;19978;-60
2023/06/07 13:53:08;;;;;;;;;;;33.00;35.00;;;;;;5081291;28;19962;-60
2023/06/07 13:55:34;;;;;;;;;;;31.90;36.80;;;;;;5080733;28;19912;-60
2023/06/07 13:58:00;;;;;;;;;;;31.70;37.50;;;;;;5080782;28;19908;-60
2023/06/07 14:00:26;;;;;;;;;;;31.80;36.80;;;;;;5080877;28;20386;-59
2023/06/07 14:02:52;;;;;;;;;;;32.30;37.00;;;;;;5081161;28;19920;-59
2023/06/07 14:05:18;;;;;;;;;;;31.80;37.60;;;;;;5080655;28;19908;-59
2023/06/07 14:07:43;;;;;;;;;;;31.70;37.00;;;;;;5080717;28;19988;-59
2023/06/07 14:10:09;;;;;;;;;;;32.10;37.60;;;;;;5080718;28;19915;-59
2023/06/07 14:12:34;;;;;;;;;;;32.10;36.80;;;;;;5081049;28;19926;-59
2023/06/07 14:15:00;;;;;;;;;;;31.90;37.10;;;;;;5080203;28;19966;-59